Search for airport 
image banner adimage banner adimage banner ad
image banner ad

09IA - Skydive Iowa

Located in Brooklyn, United States

ICAO - 09IA, IATA -

Data provided by Airmate  

General information

Coordinates: N41°44'45" W92°24'34"
Elevation is 820 feet MSL.
Magnetic variation is 03° East
View others Airports in Iowa

Operational data

Special qualification required
Current time UTC:
Current local time:
Weather at : KGGI - Grinnell Rgnl ( 27 km )
METAR: KGGI 181715Z AUTO 11006KT 10SM CLR 30/16 A2984 RMK AO2 T03000156
View NOTAMs / SUP AIP / TFR affecting this airport [VIEW]
Communications frequencies: [VIEW]

Runways:

RWY identifierQFULength (ft)Width (ft)SurfaceLDA (ft)
09270080OTHER
27270080OTHER

Airport contact information

Address: Brooklyn United States

Satellite view of 09IA